Time;durP1;ratioP1;P1;durP2;ratioP2;P2;SDS_P1;SDS_P2;PMS_P1;PMS_P2;Temp;Humidity;BMP_temperature;BMP_pressure;BME280_temperature;BME280_humidity;BME280_pressure;Samples;Min_cycle;Max_cycle;Signal;HPM_P1;HPM_P2
2021/10/25 00:00:25;;;;;;;;;;;11.60;93.50;;;;;;5110866;28;20280;-78
2021/10/25 00:02:50;;;;;;;;;;;11.60;93.60;;;;;;5109368;28;20014;-78
2021/10/25 00:05:16;;;;;;;;;;;11.60;93.60;;;;;;5109596;28;20346;-78
2021/10/25 00:07:41;;;;;;;;;;;11.50;93.60;;;;;;5092493;28;19939;-78
2021/10/25 00:10:07;;;;;;;;;;;11.50;93.60;;;;;;5109472;28;20563;-77
2021/10/25 00:12:33;;;;;;;;;;;11.50;93.60;;;;;;5110308;28;19915;-77
2021/10/25 00:14:59;;;;;;;;;;;11.40;93.60;;;;;;5110507;28;20398;-77
2021/10/25 00:17:24;;;;;;;;;;;11.40;93.60;;;;;;5109236;28;19911;-79
2021/10/25 00:19:50;;;;;;;;;;;11.40;93.60;;;;;;5109409;28;19908;-78
2021/10/25 00:22:16;;;;;;;;;;;11.30;93.60;;;;;;5110578;28;20319;-77
2021/10/25 00:24:41;;;;;;;;;;;11.30;93.70;;;;;;5109308;28;19958;-80
2021/10/25 00:27:07;;;;;;;;;;;11.30;93.60;;;;;;5109354;28;19908;-79
2021/10/25 00:29:33;;;;;;;;;;;11.20;93.70;;;;;;5092335;28;19914;-77
2021/10/25 00:31:58;;;;;;;;;;;11.20;93.70;;;;;;5113299;28;19976;-79
2021/10/25 00:34:24;;;;;;;;;;;11.10;93.70;;;;;;5096382;28;20297;-77
2021/10/25 00:36:50;;;;;;;;;;;11.10;93.70;;;;;;5114492;28;19930;-77
2021/10/25 00:39:15;;;;;;;;;;;11.10;93.70;;;;;;5113410;28;19915;-77
2021/10/25 00:41:41;;;;;;;;;;;11.10;93.90;;;;;;5113127;28;19903;-78
2021/10/25 00:44:06;;;;;;;;;;;11.10;93.90;;;;;;5113062;28;19907;-78
2021/10/25 00:46:32;;;;;;;;;;;11.00;93.90;;;;;;5114157;28;19915;-78
2021/10/25 00:48:59;;;;;;;;;;;11.10;93.90;;;;;;5096168;28;20422;-79
2021/10/25 00:51:25;;;;;;;;;;;11.10;94.00;;;;;;5112926;28;19911;-78
2021/10/25 00:53:51;;;;;;;;;;;11.00;93.90;;;;;;5114257;28;20065;-77
2021/10/25 00:56:16;;;;;;;;;;;11.00;94.00;;;;;;5114474;28;19908;-79
2021/10/25 00:58:42;;;;;;;;;;;11.00;94.00;;;;;;5114376;28;19908;-78
2021/10/25 01:01:08;;;;;;;;;;;11.00;94.00;;;;;;5114332;28;19942;-78
2021/10/25 01:03:35;;;;;;;;;;;11.00;94.10;;;;;;5114195;28;19923;-79
2021/10/25 01:06:01;;;;;;;;;;;11.00;94.10;;;;;;5114259;28;20002;-78
2021/10/25 01:08:28;;;;;;;;;;;11.00;94.20;;;;;;5113223;28;19950;-77
2021/10/25 01:10:54;;;;;;;;;;;11.00;94.30;;;;;;5112769;28;19908;-78
2021/10/25 01:13:19;;;;;;;;;;;11.00;94.30;;;;;;5114050;28;19908;-77
2021/10/25 01:15:45;;;;;;;;;;;11.00;94.30;;;;;;5114232;28;19947;-79
2021/10/25 01:18:10;;;;;;;;;;;10.90;94.30;;;;;;5114058;28;19953;-78
2021/10/25 01:20:36;;;;;;;;;;;10.90;94.40;;;;;;5112485;28;20486;-79
2021/10/25 01:23:02;;;;;;;;;;;10.90;94.40;;;;;;5095799;28;19956;-80
2021/10/25 01:25:28;;;;;;;;;;;10.90;94.40;;;;;;5112577;28;20006;-79
2021/10/25 01:27:54;;;;;;;;;;;10.90;94.40;;;;;;5114063;28;19908;-78
2021/10/25 01:30:19;;;;;;;;;;;10.90;94.40;;;;;;5113960;28;20227;-79
2021/10/25 01:32:45;;;;;;;;;;;10.90;94.40;;;;;;5113310;28;19908;-79
2021/10/25 01:35:11;;;;;;;;;;;10.80;94.30;;;;;;5112402;28;19907;-78
2021/10/25 01:37:37;;;;;;;;;;;10.80;94.30;;;;;;5111133;28;19968;-79
2021/10/25 01:40:04;;;;;;;;;;;10.80;94.40;;;;;;5113433;28;19951;-77
2021/10/25 01:42:29;;;;;;;;;;;10.80;94.40;;;;;;5112132;28;20008;-78
2021/10/25 01:44:55;;;;;;;;;;;10.80;94.40;;;;;;5113454;28;19943;-77
2021/10/25 01:47:21;;;;;;;;;;;10.80;94.40;;;;;;5113479;28;19994;-78
2021/10/25 01:49:46;;;;;;;;;;;10.80;94.40;;;;;;5112340;28;19904;-77
2021/10/25 01:52:14;;;;;;;;;;;10.80;94.50;;;;;;5113297;28;20384;-78
2021/10/25 01:54:39;;;;;;;;;;;10.70;94.40;;;;;;5112420;28;19915;-78
2021/10/25 01:57:07;;;;;;;;;;;10.70;94.40;;;;;;5111943;28;19908;-78
2021/10/25 01:59:33;;;;;;;;;;;10.70;94.50;;;;;;5113185;28;19908;-78
2021/10/25 02:01:59;;;;;;;;;;;10.70;94.50;;;;;;5111562;28;19907;-77
2021/10/25 02:04:24;;;;;;;;;;;10.70;94.40;;;;;;5111710;28;19912;-78
2021/10/25 02:06:50;;;;;;;;;;;10.70;94.50;;;;;;5113024;28;19945;-78
2021/10/25 02:09:15;;;;;;;;;;;10.70;94.50;;;;;;5111740;28;19947;-78
2021/10/25 02:11:41;;;;;;;;;;;10.60;94.50;;;;;;5111531;28;19912;-76
2021/10/25 02:14:07;;;;;;;;;;;10.60;94.50;;;;;;5111880;28;19908;-76
2021/10/25 02:16:32;;;;;;;;;;;10.60;94.60;;;;;;5112734;28;19904;-76
2021/10/25 02:18:58;;;;;;;;;;;10.60;94.60;;;;;;5094405;28;19954;-77
2021/10/25 02:21:23;;;;;;;;;;;10.60;94.60;;;;;;5112692;28;19912;-78
2021/10/25 02:23:49;;;;;;;;;;;10.50;94.60;;;;;;5111509;28;20362;-79
2021/10/25 02:26:14;;;;;;;;;;;10.60;94.70;;;;;;5094184;28;20014;-78
2021/10/25 02:28:40;;;;;;;;;;;10.60;94.70;;;;;;5111286;28;19908;-79
2021/10/25 02:31:06;;;;;;;;;;;10.60;94.70;;;;;;5110964;28;19912;-79
2021/10/25 02:33:31;;;;;;;;;;;10.70;94.70;;;;;;5112448;28;19908;-77
2021/10/25 02:35:57;;;;;;;;;;;10.70;94.90;;;;;;5112806;28;19914;-78
2021/10/25 02:38:23;;;;;;;;;;;10.70;94.60;;;;;;5110840;28;19994;-78
2021/10/25 02:40:48;;;;;;;;;;;10.70;94.50;;;;;;5110240;28;19908;-80
2021/10/25 02:43:14;;;;;;;;;;;10.70;94.50;;;;;;5111834;28;20380;-78
2021/10/25 02:45:40;;;;;;;;;;;10.60;94.60;;;;;;5093911;28;19908;-79
2021/10/25 02:48:06;;;;;;;;;;;10.50;94.50;;;;;;5111034;28;20451;-79
2021/10/25 02:50:32;;;;;;;;;;;10.50;94.50;;;;;;5110698;28;19908;-79
2021/10/25 02:52:58;;;;;;;;;;;10.40;94.60;;;;;;5093470;28;19914;-79
2021/10/25 02:55:23;;;;;;;;;;;10.40;94.80;;;;;;5112048;28;19911;-79
2021/10/25 02:57:49;;;;;;;;;;;10.40;94.70;;;;;;5093664;28;19925;-79
2021/10/25 03:00:16;;;;;;;;;;;10.40;94.70;;;;;;5110673;28;19957;-79
2021/10/25 03:02:43;;;;;;;;;;;10.30;94.70;;;;;;5110477;28;19922;-79
2021/10/25 03:05:09;;;;;;;;;;;10.40;94.70;;;;;;5093756;28;20374;-80
2021/10/25 03:07:35;;;;;;;;;;;10.40;94.70;;;;;;5110223;28;19976;-78
2021/10/25 03:10:00;;;;;;;;;;;10.40;94.70;;;;;;5111860;28;20354;-77
2021/10/25 03:12:26;;;;;;;;;;;10.40;94.60;;;;;;5111808;28;20384;-76
2021/10/25 03:14:53;;;;;;;;;;;10.30;94.60;;;;;;5111916;28;20250;-77
2021/10/25 03:17:19;;;;;;;;;;;10.30;94.50;;;;;;5110667;28;20370;-76
2021/10/25 03:19:45;;;;;;;;;;;10.30;94.50;;;;;;5111519;28;19996;-77
2021/10/25 03:22:12;;;;;;;;;;;10.20;94.50;;;;;;5110197;28;19914;-76
2021/10/25 03:24:38;;;;;;;;;;;10.20;94.50;;;;;;5093612;28;20296;-77
2021/10/25 03:27:04;;;;;;;;;;;10.20;94.50;;;;;;5111324;28;19912;-76
2021/10/25 03:29:30;;;;;;;;;;;10.10;94.50;;;;;;5111299;28;19965;-77
2021/10/25 03:31:55;;;;;;;;;;;10.10;94.60;;;;;;5111186;28;20574;-79
2021/10/25 03:34:21;;;;;;;;;;;10.10;94.50;;;;;;5111420;28;19908;-78
2021/10/25 03:36:49;;;;;;;;;;;10.10;94.50;;;;;;5111072;28;20275;-77
2021/10/25 03:39:18;;;;;;;;;;;10.10;94.80;;;;;;5110141;28;19916;-76
2021/10/25 03:41:46;;;;;;;;;;;10.10;94.70;;;;;;5111269;28;19994;-75
2021/10/25 03:44:23;;;;;;;;;;;10.00;94.60;;;;;;5109852;28;19943;-77
2021/10/25 03:47:01;;;;;;;;;;;10.00;94.70;;;;;;5109325;28;20370;-77
2021/10/25 03:51:52;;;;;;;;;;;10.00;94.80;;;;;;5111181;28;19915;-78
2021/10/25 03:54:27;;;;;;;;;;;10.00;94.80;;;;;;5109881;28;19914;-76
2021/10/25 03:57:13;;;;;;;;;;;9.90;94.80;;;;;;5109462;28;19911;-77
2021/10/25 04:00:05;;;;;;;;;;;9.90;94.80;;;;;;5110173;28;19941;-77
2021/10/25 04:29:21;;;;;;;;;;;9.80;94.90;;;;;;5110774;28;19908;-78
2021/10/25 04:31:48;;;;;;;;;;;9.80;94.90;;;;;;5110688;28;20362;-78
2021/10/25 04:34:14;;;;;;;;;;;9.80;94.90;;;;;;5110700;28;19919;-76
2021/10/25 04:36:39;;;;;;;;;;;9.80;94.90;;;;;;5110589;28;19903;-80
2021/10/25 04:39:09;;;;;;;;;;;9.80;94.90;;;;;;5109250;28;19908;-78
2021/10/25 04:41:35;;;;;;;;;;;9.80;94.90;;;;;;5110321;28;19915;-77
2021/10/25 04:44:01;;;;;;;;;;;9.80;95.00;;;;;;5109168;28;19923;-78
2021/10/25 04:46:26;;;;;;;;;;;9.80;95.10;;;;;;5109078;28;19907;-78
2021/10/25 04:48:52;;;;;;;;;;;9.90;95.00;;;;;;5109391;28;19908;-78
2021/10/25 04:51:17;;;;;;;;;;;9.90;95.00;;;;;;5109165;28;19944;-77
2021/10/25 04:53:43;;;;;;;;;;;10.00;95.00;;;;;;5110521;28;20373;-79
2021/10/25 04:56:09;;;;;;;;;;;9.90;94.90;;;;;;5110353;28;19994;-79
2021/10/25 04:58:34;;;;;;;;;;;9.90;95.00;;;;;;5108939;28;19960;-77
2021/10/25 05:01:00;;;;;;;;;;;9.90;95.00;;;;;;5109130;28;19911;-79
2021/10/25 05:03:25;;;;;;;;;;;9.90;94.90;;;;;;5108851;28;20392;-79
2021/10/25 05:05:51;;;;;;;;;;;9.90;95.00;;;;;;5108952;28;20324;-77
2021/10/25 05:08:17;;;;;;;;;;;9.90;94.90;;;;;;5110187;28;19912;-78
2021/10/25 05:10:42;;;;;;;;;;;9.90;94.90;;;;;;5092659;28;19907;-77
2021/10/25 05:13:08;;;;;;;;;;;9.90;94.90;;;;;;5109192;28;19974;-77
2021/10/25 05:15:33;;;;;;;;;;;9.80;94.90;;;;;;5109064;28;19914;-78
2021/10/25 05:17:59;;;;;;;;;;;9.80;94.90;;;;;;5112593;28;19915;-77
2021/10/25 05:20:24;;;;;;;;;;;9.80;94.80;;;;;;5113818;28;20301;-77
2021/10/25 05:22:50;;;;;;;;;;;9.80;94.80;;;;;;5095387;28;19912;-78
2021/10/25 05:25:16;;;;;;;;;;;9.80;94.80;;;;;;5112369;28;19903;-78
2021/10/25 05:27:41;;;;;;;;;;;9.70;94.80;;;;;;5113725;28;19908;-78
2021/10/25 05:30:07;;;;;;;;;;;9.70;94.90;;;;;;5113668;28;20014;-78
2021/10/25 05:32:33;;;;;;;;;;;9.70;94.90;;;;;;5113417;28;20350;-78
2021/10/25 05:34:58;;;;;;;;;;;9.70;95.00;;;;;;5112273;28;19929;-78
2021/10/25 05:37:24;;;;;;;;;;;9.70;95.00;;;;;;5113338;28;19908;-77
2021/10/25 05:39:50;;;;;;;;;;;9.70;95.10;;;;;;5112402;28;20356;-78
2021/10/25 05:42:16;;;;;;;;;;;9.80;95.10;;;;;;5112034;28;19957;-78
2021/10/25 05:44:41;;;;;;;;;;;9.80;95.10;;;;;;5111830;28;20357;-77
2021/10/25 05:47:07;;;;;;;;;;;9.90;95.20;;;;;;5111570;28;19912;-78
2021/10/25 05:49:33;;;;;;;;;;;9.90;95.20;;;;;;5111471;28;19904;-77
2021/10/25 05:51:59;;;;;;;;;;;10.00;95.20;;;;;;5113184;28;19904;-78
2021/10/25 05:54:26;;;;;;;;;;;10.20;95.20;;;;;;5112152;28;20300;-78
2021/10/25 05:56:51;;;;;;;;;;;10.20;95.10;;;;;;5111667;28;20004;-79
2021/10/25 05:59:22;;;;;;;;;;;10.30;95.10;;;;;;5113090;28;19912;-78
2021/10/25 06:01:56;;;;;;;;;;;10.40;95.10;;;;;;5111641;28;19911;-77
2021/10/25 06:04:24;;;;;;;;;;;10.40;95.10;;;;;;5111986;28;19908;-79
2021/10/25 06:06:50;;;;;;;;;;;10.50;95.10;;;;;;5111709;28;20413;-76
2021/10/25 06:09:16;;;;;;;;;;;10.50;95.10;;;;;;5113097;28;19975;-77
2021/10/25 06:11:42;;;;;;;;;;;10.50;95.00;;;;;;5111801;28;19918;-77
2021/10/25 06:14:10;;;;;;;;;;;10.60;95.00;;;;;;5112783;28;19903;-78
2021/10/25 06:16:40;;;;;;;;;;;10.60;95.00;;;;;;5112633;28;20357;-78
2021/10/25 06:19:06;;;;;;;;;;;10.60;94.90;;;;;;5112678;28;20371;-77
2021/10/25 06:21:32;;;;;;;;;;;10.50;94.90;;;;;;5112437;28;19951;-77
2021/10/25 06:23:59;;;;;;;;;;;10.50;95.00;;;;;;5111330;28;19942;-77
2021/10/25 06:26:25;;;;;;;;;;;10.40;95.00;;;;;;5112880;28;20378;-78
2021/10/25 06:28:51;;;;;;;;;;;10.40;95.00;;;;;;5093462;28;19907;-78
2021/10/25 06:31:17;;;;;;;;;;;10.40;95.00;;;;;;5093862;28;19965;-77
2021/10/25 06:33:45;;;;;;;;;;;10.40;95.00;;;;;;5112244;28;20033;-77
2021/10/25 06:36:11;;;;;;;;;;;10.40;95.10;;;;;;5111872;28;20373;-78
2021/10/25 06:39:09;;;;;;;;;;;10.40;95.10;;;;;;5109022;28;19904;-78
2021/10/25 06:41:24;;;;;;;;;;;10.30;95.10;;;;;;5111843;28;20377;-77
2021/10/25 06:43:50;;;;;;;;;;;10.40;95.10;;;;;;5112274;28;19907;-78
2021/10/25 06:46:17;;;;;;;;;;;10.30;95.10;;;;;;5110366;28;19904;-77
2021/10/25 06:48:43;;;;;;;;;;;10.40;95.10;;;;;;5111088;28;20290;-78
2021/10/25 06:51:09;;;;;;;;;;;10.40;95.10;;;;;;5112155;28;19904;-77
2021/10/25 06:53:34;;;;;;;;;;;10.40;95.10;;;;;;5093803;28;20517;-79
2021/10/25 06:56:00;;;;;;;;;;;10.40;95.10;;;;;;5112159;28;19907;-79
2021/10/25 06:58:25;;;;;;;;;;;10.40;95.10;;;;;;5110668;28;19922;-78
2021/10/25 07:00:51;;;;;;;;;;;10.40;95.10;;;;;;5110619;28;19914;-77
2021/10/25 07:03:17;;;;;;;;;;;10.40;95.20;;;;;;5111823;28;20368;-79
2021/10/25 07:05:43;;;;;;;;;;;10.40;95.20;;;;;;5110170;28;19915;-78
2021/10/25 07:08:09;;;;;;;;;;;10.40;95.20;;;;;;5111709;28;19903;-78
2021/10/25 07:10:36;;;;;;;;;;;10.40;95.10;;;;;;5112006;28;19911;-78
2021/10/25 07:13:02;;;;;;;;;;;10.40;95.10;;;;;;5111642;28;20298;-78
2021/10/25 07:15:28;;;;;;;;;;;10.50;95.10;;;;;;5093645;28;19914;-77
2021/10/25 07:21:12;;;;;;;;;;;10.40;95.10;;;;;;5068587;28;19915;-77
2021/10/25 08:12:06;;;;;;;;;;;10.40;95.20;;;;;;5113178;28;20346;-77
2021/10/25 08:14:35;;;;;;;;;;;10.50;95.20;;;;;;5113543;28;19931;-78
2021/10/25 08:17:01;;;;;;;;;;;10.60;95.10;;;;;;5111669;28;19952;-79
2021/10/25 08:19:27;;;;;;;;;;;10.70;95.10;;;;;;5112647;28;19990;-78
2021/10/25 08:22:04;;;;;;;;;;;10.70;95.00;;;;;;5112331;28;20004;-77
2021/10/25 08:24:34;;;;;;;;;;;10.80;94.90;;;;;;5113776;28;19904;-77
2021/10/25 08:27:01;;;;;;;;;;;10.80;94.90;;;;;;5111449;28;19907;-77
2021/10/25 08:29:27;;;;;;;;;;;10.90;94.90;;;;;;5109816;28;19949;-78
2021/10/25 08:32:26;;;;;;;;;;;10.90;94.90;;;;;;5109116;28;19983;-80
2021/10/25 08:40:00;;;;;;;;;;;10.90;94.80;;;;;;5110842;28;19904;-81
2021/10/25 08:42:31;;;;;;;;;;;11.50;96.10;;;;;;5110038;28;19961;-79
2021/10/25 08:45:29;;;;;;;;;;;12.30;96.00;;;;;;5110247;28;20369;-78
2021/10/25 08:47:53;;;;;;;;;;;13.30;95.70;;;;;;5109760;28;20308;-77
2021/10/25 08:50:22;;;;;;;;;;;14.10;94.20;;;;;;5109100;28;19903;-77
2021/10/25 08:52:48;;;;;;;;;;;14.30;92.90;;;;;;5114405;28;19904;-77
2021/10/25 08:55:17;;;;;;;;;;;14.10;92.10;;;;;;5114447;28;19998;-77
2021/10/25 08:57:42;;;;;;;;;;;13.80;91.90;;;;;;5096362;28;19956;-79
2021/10/25 09:00:10;;;;;;;;;;;13.60;92.00;;;;;;5096088;28;20320;-79
2021/10/25 09:02:35;;;;;;;;;;;13.80;92.70;;;;;;5112844;28;20353;-78
2021/10/25 09:05:07;;;;;;;;;;;14.50;93.30;;;;;;5113107;28;19910;-79
2021/10/25 09:07:46;;;;;;;;;;;15.20;92.10;;;;;;5113842;28;19916;-76
2021/10/25 09:10:11;;;;;;;;;;;15.40;91.10;;;;;;5110533;28;19957;-77
2021/10/25 09:12:37;;;;;;;;;;;15.40;90.90;;;;;;5113293;28;19911;-78
2021/10/25 09:15:03;;;;;;;;;;;16.00;90.90;;;;;;5113309;28;19915;-78
2021/10/25 09:17:38;;;;;;;;;;;16.10;89.50;;;;;;5113118;28;20521;-80
2021/10/25 09:20:06;;;;;;;;;;;15.80;87.80;;;;;;5113433;28;19946;-76
2021/10/25 09:22:32;;;;;;;;;;;15.40;87.70;;;;;;5096239;28;19912;-76
2021/10/25 09:24:58;;;;;;;;;;;15.10;87.90;;;;;;5114339;28;19908;-78
2021/10/25 09:27:35;;;;;;;;;;;14.90;88.10;;;;;;5095942;28;19981;-78
2021/10/25 09:30:15;;;;;;;;;;;15.00;88.90;;;;;;5114510;28;19968;-78
2021/10/25 09:32:42;;;;;;;;;;;15.50;90.00;;;;;;5112647;28;19911;-76
2021/10/25 09:35:17;;;;;;;;;;;16.40;90.30;;;;;;5111972;28;19904;-77
2021/10/25 09:37:50;;;;;;;;;;;17.30;90.00;;;;;;5112891;28;20628;-79
2021/10/25 09:40:21;;;;;;;;;;;18.10;88.40;;;;;;5112177;28;19961;-76
2021/10/25 09:46:21;;;;;;;;;;;19.00;85.50;;;;;;5089229;28;19919;-79
2021/10/25 09:51:15;;;;;;;;;;;20.10;82.40;;;;;;5113461;28;19918;-78
2021/10/25 09:53:46;;;;;;;;;;;20.50;81.80;;;;;;5113059;28;19908;-80
2021/10/25 09:56:15;;;;;;;;;;;20.40;80.20;;;;;;5111680;28;19912;-78
2021/10/25 10:01:28;;;;;;;;;;;19.20;77.20;;;;;;5080145;28;20375;-77
2021/10/25 10:03:53;;;;;;;;;;;18.60;77.50;;;;;;5109925;28;19962;-77
2021/10/25 10:06:20;;;;;;;;;;;18.50;78.90;;;;;;5112623;28;20025;-80
2021/10/25 10:08:45;;;;;;;;;;;18.70;78.80;;;;;;5111450;28;20311;-78
2021/10/25 10:11:12;;;;;;;;;;;19.20;79.10;;;;;;5094551;28;19908;-79
2021/10/25 10:13:39;;;;;;;;;;;19.70;78.20;;;;;;5112629;28;19970;-78
2021/10/25 10:16:06;;;;;;;;;;;20.30;76.70;;;;;;5112530;28;20358;-79
2021/10/25 10:18:32;;;;;;;;;;;20.70;75.80;;;;;;5111984;28;19998;-78
2021/10/25 10:21:00;;;;;;;;;;;20.60;75.10;;;;;;5110667;28;19915;-78
2021/10/25 10:23:26;;;;;;;;;;;20.60;75.70;;;;;;5112311;28;19903;-78
2021/10/25 10:25:54;;;;;;;;;;;20.90;75.30;;;;;;5112223;28;19973;-78
2021/10/25 10:28:31;;;;;;;;;;;20.70;74.10;;;;;;5111981;28;19910;-79
2021/10/25 10:30:58;;;;;;;;;;;20.70;74.80;;;;;;5111738;28;20242;-78
2021/10/25 10:33:35;;;;;;;;;;;21.00;74.30;;;;;;5110613;28;19904;-78
2021/10/25 10:36:28;;;;;;;;;;;20.90;73.50;;;;;;5111761;28;19972;-76
2021/10/25 10:38:59;;;;;;;;;;;20.30;71.30;;;;;;5109298;28;20329;-79
2021/10/25 10:41:58;;;;;;;;;;;19.40;71.40;;;;;;5111903;28;19914;-78
2021/10/25 10:44:26;;;;;;;;;;;18.70;71.90;;;;;;5087801;28;19990;-78
2021/10/25 10:46:55;;;;;;;;;;;18.20;73.10;;;;;;5109509;28;19953;-77
2021/10/25 10:49:23;;;;;;;;;;;18.00;73.80;;;;;;5111071;28;20409;-77
2021/10/25 10:52:06;;;;;;;;;;;18.00;74.40;;;;;;5111793;28;20021;-80
2021/10/25 10:54:47;;;;;;;;;;;18.20;74.20;;;;;;5110216;28;19904;-78
2021/10/25 10:57:26;;;;;;;;;;;18.60;75.00;;;;;;5111421;28;19958;-79
2021/10/25 10:59:59;;;;;;;;;;;19.40;76.40;;;;;;5110222;28;20342;-78
2021/10/25 11:02:24;;;;;;;;;;;20.50;76.20;;;;;;5110068;28;20463;-78
2021/10/25 11:04:50;;;;;;;;;;;21.10;74.20;;;;;;5110410;28;19914;-79
2021/10/25 11:07:15;;;;;;;;;;;21.10;73.10;;;;;;5111103;28;19956;-78
2021/10/25 11:09:41;;;;;;;;;;;21.40;73.10;;;;;;5111022;28;19914;-77
2021/10/25 11:12:09;;;;;;;;;;;21.80;72.10;;;;;;5109948;28;20327;-78
2021/10/25 11:14:36;;;;;;;;;;;21.80;71.30;;;;;;5110881;28;19984;-79
2021/10/25 11:17:20;;;;;;;;;;;22.10;72.20;;;;;;5109757;28;19904;-79
2021/10/25 11:19:51;;;;;;;;;;;22.40;71.90;;;;;;5110964;28;19979;-80
2021/10/25 11:22:34;;;;;;;;;;;22.40;71.50;;;;;;5109865;28;19911;-78
2021/10/25 11:25:00;;;;;;;;;;;22.40;70.90;;;;;;5109758;28;19903;-80
2021/10/25 11:27:31;;;;;;;;;;;22.10;69.50;;;;;;5109458;28;19908;-78
2021/10/25 11:30:07;;;;;;;;;;;21.90;68.70;;;;;;5110592;28;19903;-79
2021/10/25 11:32:33;;;;;;;;;;;21.90;68.90;;;;;;5108906;28;19904;-79
2021/10/25 11:34:59;;;;;;;;;;;21.50;67.50;;;;;;5109178;28;20296;-78
2021/10/25 11:37:26;;;;;;;;;;;21.30;68.30;;;;;;5109165;28;19936;-78
2021/10/25 11:39:58;;;;;;;;;;;21.30;68.90;;;;;;5111421;28;19903;-78
2021/10/25 11:42:24;;;;;;;;;;;21.30;67.80;;;;;;5110600;28;19956;-78
2021/10/25 11:44:52;;;;;;;;;;;21.10;67.80;;;;;;5107832;28;19904;-78
2021/10/25 11:47:24;;;;;;;;;;;21.20;67.10;;;;;;5108911;28;19954;-76
2021/10/25 11:49:56;;;;;;;;;;;21.40;67.80;;;;;;5109660;28;19990;-78
2021/10/25 11:52:22;;;;;;;;;;;21.80;68.80;;;;;;5109025;28;19990;-75
2021/10/25 11:54:51;;;;;;;;;;;22.20;68.50;;;;;;5110988;28;20373;-79
2021/10/25 11:57:23;;;;;;;;;;;22.60;68.80;;;;;;5110077;28;20067;-79
2021/10/25 12:00:14;;;;;;;;;;;22.90;67.90;;;;;;5109128;28;19998;-78
2021/10/25 12:02:40;;;;;;;;;;;23.10;66.50;;;;;;5108081;28;19943;-79
2021/10/25 12:05:06;;;;;;;;;;;23.00;64.80;;;;;;5108830;28;19907;-79
2021/10/25 12:07:32;;;;;;;;;;;22.80;64.80;;;;;;5110248;28;19910;-79
2021/10/25 12:10:02;;;;;;;;;;;22.80;65.00;;;;;;5109529;28;19903;-77
2021/10/25 12:12:28;;;;;;;;;;;22.90;64.80;;;;;;5108605;28;19908;-77
2021/10/25 12:14:58;;;;;;;;;;;22.40;62.80;;;;;;5109367;28;19903;-78
2021/10/25 12:17:30;;;;;;;;;;;21.70;62.60;;;;;;5110279;28;19914;-79
2021/10/25 12:19:56;;;;;;;;;;;21.20;63.50;;;;;;5108958;28;20361;-78
2021/10/25 12:22:22;;;;;;;;;;;20.90;63.40;;;;;;5109085;28;19915;-79
2021/10/25 12:24:51;;;;;;;;;;;20.50;63.50;;;;;;5108757;28;20376;-78
2021/10/25 12:27:27;;;;;;;;;;;19.90;63.30;;;;;;5111937;28;20643;-78
2021/10/25 12:30:06;;;;;;;;;;;19.30;63.30;;;;;;5114334;28;20286;-79
2021/10/25 12:32:35;;;;;;;;;;;18.70;64.00;;;;;;5114560;28;19904;-78
2021/10/25 12:35:03;;;;;;;;;;;18.20;64.40;;;;;;5112975;28;19950;-78
2021/10/25 12:37:32;;;;;;;;;;;17.80;64.90;;;;;;5114049;28;19992;-77
2021/10/25 12:39:58;;;;;;;;;;;17.40;65.40;;;;;;5114251;28;19908;-77
2021/10/25 12:42:25;;;;;;;;;;;17.00;65.90;;;;;;5114965;28;19923;-76
2021/10/25 12:44:53;;;;;;;;;;;16.80;66.90;;;;;;5114227;28;19910;-78
2021/10/25 12:47:20;;;;;;;;;;;17.10;68.40;;;;;;5113885;28;19903;-77
2021/10/25 12:49:50;;;;;;;;;;;17.90;69.60;;;;;;5113933;28;19903;-77
2021/10/25 12:52:16;;;;;;;;;;;18.70;69.70;;;;;;5112369;28;20281;-78
2021/10/25 12:54:42;;;;;;;;;;;19.00;67.90;;;;;;5114170;28;19904;-77
2021/10/25 12:57:22;;;;;;;;;;;18.70;66.80;;;;;;5113883;28;19952;-77
2021/10/25 12:59:58;;;;;;;;;;;18.30;66.50;;;;;;5113741;28;19908;-78
2021/10/25 13:02:24;;;;;;;;;;;17.80;66.50;;;;;;5112864;28;19945;-77
2021/10/25 13:04:49;;;;;;;;;;;17.40;66.90;;;;;;5112485;28;19935;-78
2021/10/25 13:07:15;;;;;;;;;;;17.20;67.40;;;;;;5111757;28;20353;-78
2021/10/25 13:09:51;;;;;;;;;;;17.00;67.70;;;;;;5111787;28;19939;-77
2021/10/25 13:12:17;;;;;;;;;;;17.00;68.60;;;;;;5113311;28;19951;-77
2021/10/25 13:14:43;;;;;;;;;;;17.10;68.80;;;;;;5113363;28;19904;-78
2021/10/25 13:17:09;;;;;;;;;;;17.00;68.40;;;;;;5095170;28;20411;-77
2021/10/25 13:19:35;;;;;;;;;;;16.90;68.90;;;;;;5113464;28;19903;-78
2021/10/25 13:22:00;;;;;;;;;;;16.90;68.80;;;;;;5112202;28;19911;-76
2021/10/25 13:24:26;;;;;;;;;;;16.70;68.60;;;;;;5113350;28;19944;-78
2021/10/25 13:26:52;;;;;;;;;;;16.40;68.50;;;;;;5093919;28;19907;-78
2021/10/25 13:29:17;;;;;;;;;;;16.20;68.70;;;;;;5111506;28;19911;-78
2021/10/25 13:31:43;;;;;;;;;;;16.10;69.00;;;;;;5109540;28;19903;-78
2021/10/25 13:34:09;;;;;;;;;;;15.90;69.00;;;;;;5110336;28;19990;-78
2021/10/25 13:36:34;;;;;;;;;;;15.80;69.20;;;;;;5091837;28;20018;-78
2021/10/25 13:39:00;;;;;;;;;;;15.60;69.30;;;;;;5092175;28;20374;-78
2021/10/25 13:41:26;;;;;;;;;;;15.60;69.70;;;;;;5110635;28;19919;-79
2021/10/25 13:43:52;;;;;;;;;;;15.90;70.60;;;;;;5110619;28;19942;-76
2021/10/25 13:46:19;;;;;;;;;;;16.30;71.00;;;;;;5109179;28;19950;-77
2021/10/25 13:48:44;;;;;;;;;;;16.70;71.00;;;;;;5109163;28;19919;-78
2021/10/25 13:51:10;;;;;;;;;;;16.90;70.50;;;;;;5107166;28;19908;-77
2021/10/25 13:53:36;;;;;;;;;;;17.00;69.70;;;;;;5108876;28;20003;-78
2021/10/25 13:56:03;;;;;;;;;;;16.90;68.80;;;;;;5108550;28;20160;-77
2021/10/25 13:58:28;;;;;;;;;;;16.70;68.90;;;;;;5108897;28;20346;-76
2021/10/25 14:00:54;;;;;;;;;;;16.60;68.80;;;;;;5107142;28;19965;-78
2021/10/25 14:03:20;;;;;;;;;;;16.50;68.50;;;;;;5108627;28;19982;-78
2021/10/25 14:05:47;;;;;;;;;;;16.40;68.40;;;;;;5110077;28;19904;-79
2021/10/25 14:08:14;;;;;;;;;;;16.40;68.20;;;;;;5110546;28;20346;-77
2021/10/25 14:10:45;;;;;;;;;;;16.30;68.30;;;;;;5109910;28;19990;-78
2021/10/25 14:13:19;;;;;;;;;;;16.20;68.50;;;;;;5108818;28;19956;-80
2021/10/25 14:15:45;;;;;;;;;;;16.20;68.60;;;;;;5110463;28;19914;-77
2021/10/25 14:18:11;;;;;;;;;;;16.30;68.90;;;;;;5092110;28;20349;-79
2021/10/25 14:20:37;;;;;;;;;;;16.30;68.90;;;;;;5108326;28;19962;-78
2021/10/25 14:23:04;;;;;;;;;;;16.40;68.90;;;;;;5109631;28;19911;-79
2021/10/25 14:25:30;;;;;;;;;;;16.50;68.70;;;;;;5108494;28;19942;-78
2021/10/25 14:27:56;;;;;;;;;;;16.50;68.80;;;;;;5109557;28;19907;-79
2021/10/25 14:30:22;;;;;;;;;;;16.50;68.80;;;;;;5108201;28;19969;-79
2021/10/25 14:32:48;;;;;;;;;;;16.50;68.80;;;;;;5108348;28;19908;-76
2021/10/25 14:35:14;;;;;;;;;;;16.40;68.50;;;;;;5108064;28;20408;-77
2021/10/25 14:37:42;;;;;;;;;;;16.30;68.50;;;;;;5109679;28;19904;-80
2021/10/25 14:40:11;;;;;;;;;;;16.20;68.50;;;;;;5108348;28;19957;-78
2021/10/25 14:42:40;;;;;;;;;;;16.00;68.50;;;;;;5109490;28;19909;-78
2021/10/25 14:45:26;;;;;;;;;;;15.80;68.60;;;;;;5109676;28;19903;-78
2021/10/25 14:56:06;;;;;;;;;;;15.20;68.90;;;;;;5094991;28;19919;-77
2021/10/25 14:58:32;;;;;;;;;;;15.10;69.30;;;;;;5110353;28;19911;-78
2021/10/25 15:00:58;;;;;;;;;;;15.10;69.60;;;;;;5109544;28;19908;-77
2021/10/25 15:03:24;;;;;;;;;;;15.20;69.80;;;;;;5108766;28;19919;-77
2021/10/25 15:05:51;;;;;;;;;;;15.30;70.00;;;;;;5109458;28;19903;-75
2021/10/25 15:08:17;;;;;;;;;;;15.30;69.90;;;;;;5109057;28;19914;-78
2021/10/25 15:10:42;;;;;;;;;;;15.40;70.10;;;;;;5109068;28;19908;-78
2021/10/25 15:13:08;;;;;;;;;;;15.60;70.00;;;;;;5107972;28;19966;-78
2021/10/25 15:15:34;;;;;;;;;;;15.60;69.70;;;;;;5108694;28;19907;-78
2021/10/25 15:17:59;;;;;;;;;;;15.50;69.50;;;;;;5090264;28;19971;-79
2021/10/25 15:20:25;;;;;;;;;;;15.40;69.50;;;;;;5107717;28;19968;-78
2021/10/25 15:22:51;;;;;;;;;;;15.30;69.60;;;;;;5108671;28;19911;-76
2021/10/25 15:25:19;;;;;;;;;;;15.10;69.60;;;;;;5107725;28;19907;-79
2021/10/25 15:27:44;;;;;;;;;;;14.90;69.90;;;;;;5108734;28;20016;-77
2021/10/25 15:30:11;;;;;;;;;;;14.80;70.10;;;;;;5108889;28;20021;-78
2021/10/25 15:32:38;;;;;;;;;;;14.70;70.30;;;;;;5108494;28;19904;-77
2021/10/25 15:35:04;;;;;;;;;;;14.50;70.60;;;;;;5108589;28;19912;-79
2021/10/25 15:37:30;;;;;;;;;;;14.40;70.90;;;;;;5108570;28;19920;-78
2021/10/25 15:39:56;;;;;;;;;;;14.40;71.20;;;;;;5107304;28;19908;-79
2021/10/25 15:42:23;;;;;;;;;;;14.30;71.40;;;;;;5108157;28;19911;-79
2021/10/25 15:44:49;;;;;;;;;;;14.20;71.50;;;;;;5108073;28;20328;-77
2021/10/25 15:47:16;;;;;;;;;;;14.10;71.60;;;;;;5108226;28;19903;-77
2021/10/25 15:49:42;;;;;;;;;;;14.10;71.80;;;;;;5108440;28;19903;-77
2021/10/25 15:52:12;;;;;;;;;;;14.00;72.00;;;;;;5106817;28;20010;-80
2021/10/25 15:54:38;;;;;;;;;;;14.00;72.30;;;;;;5107828;28;20269;-80
2021/10/25 15:57:04;;;;;;;;;;;14.00;72.40;;;;;;5108015;28;19981;-77
2021/10/25 15:59:29;;;;;;;;;;;14.00;72.60;;;;;;5108141;28;19911;-77
2021/10/25 16:01:55;;;;;;;;;;;14.00;72.70;;;;;;5105731;28;19911;-78
2021/10/25 16:04:21;;;;;;;;;;;13.90;72.70;;;;;;5108344;28;19919;-79